Terminal Aerodrome Forecast
Issued by NWS Louisville, KY

Home | Current Version | Previous Version | Text Only | Print | Product List | Glossary On
Versions: 1 2 3 4 5 6 7 8 9 10 11 12 13 14 15 16 17 18
000
FTUS43 KLMK 170523
TAFLEX
TAF
KLEX 170523Z 1706/1806 07006KT P6SM OVC027
     FM171600 VRB04KT 4SM -RA BR OVC017
     FM171900 VRB04KT 4SM -RA BR OVC008
     FM172200 23005KT P6SM OVC007=

USA.gov is the U.S. government's official web portal to all federal, state and local government web resources and services.